Almyros — 9HA2510 — position and weather

sailwx.info

Track history (hours):
 
Tides and Currents Weather Stations Pressure Air Temp Water Temp Dewpoint Dewpoint Depression Visibility Wind Speed Wind Dir Waves Ship Positions

Almyros

Last reported at 2015-Apr-30 19:24 UTC. Time now 2015-May-06 17:31 UTC.
Position N 36°28' E 014°58'.

Length 189 m; draft 11.3 m.

Type: Cargo ship. MMSI: 248779000.

Date/timePositionNaut miles runAvg speedWind from/ knotsBaromVisibWave heightAir tempDewpointWater temp
2015-Apr-30 19:24N 36°28' E 014°58'1113.4
2015-Apr-30 18:33N 36°29' E 014°44'1413.7
2015-Apr-30 17:33N 36°30' E 014°27'1413.8
2015-Apr-30 16:34N 36°32' E 014°11'1413.7
2015-Apr-30 15:33N 36°35' E 013°54'1414.0
2015-Apr-30 14:33N 36°39' E 013°37'1413.9
2015-Apr-30 13:33N 36°43' E 013°20'1413.9
2015-Apr-30 12:33N 36°46' E 013°04'1513.5
2015-Apr-30 11:28N 36°50' E 012°46'1513.6
2015-Apr-30 10:23N 36°54' E 012°28'1213.6
2015-Apr-30 09:32N 36°57' E 012°14'1413.9
2015-Apr-30 08:33N 37°01' E 011°58'10013.6
2015-Apr-30 01:10N 37°34' E 009°58'35713.4
2015-Apr-28 22:28N 36°55' E 002°33'5513.9
2015-Apr-28 18:31N 36°47' E 001°25'1414.2
2015-Apr-28 17:33N 36°45' E 001°08'1414.3
2015-Apr-28 16:33N 36°43' E 000°50'1414.0
2015-Apr-28 15:33N 36°41' E 000°33'1413.9
2015-Apr-28 14:33N 36°39' E 000°16'4313.8
2015-Apr-28 11:26N 36°33' W 000°37'9713.6
2015-Apr-28 04:18N 36°19' W 002°37'1212.8
2015-Apr-28 03:24N 36°17' W 002°51'11312.8
2015-Apr-27 18:33N 36°04' W 005°10'6 5.9
2015-Apr-27 17:34N 36°01' W 005°16'  
Track history (hours):
 
Tides and Currents Weather Stations Pressure Air Temp Water Temp Dewpoint Dewpoint Depression Visibility Wind Speed Wind Dir Waves Ship Positions

Almyros

Last reported at 2015-Apr-30 19:24 UTC. Time now 2015-May-06 17:31 UTC.
Position N 36°28' E 014°58'.

Length 189 m; draft 11.3 m.

Type: Cargo ship. MMSI: 248779000.

Date/timePositionNaut miles runAvg speedWind from/ knotsBaromVisibWave heightAir tempDewpointWater temp
2015-Apr-30 19:24N 36°28' E 014°58'1113.4
2015-Apr-30 18:33N 36°29' E 014°44'1413.7
2015-Apr-30 17:33N 36°30' E 014°27'1413.8
2015-Apr-30 16:34N 36°32' E 014°11'1413.7
2015-Apr-30 15:33N 36°35' E 013°54'1414.0
2015-Apr-30 14:33N 36°39' E 013°37'1413.9
2015-Apr-30 13:33N 36°43' E 013°20'1413.9
2015-Apr-30 12:33N 36°46' E 013°04'1513.5
2015-Apr-30 11:28N 36°50' E 012°46'1513.6
2015-Apr-30 10:23N 36°54' E 012°28'1213.6
2015-Apr-30 09:32N 36°57' E 012°14'1413.9
2015-Apr-30 08:33N 37°01' E 011°58'10013.6
2015-Apr-30 01:10N 37°34' E 009°58'35713.4
2015-Apr-28 22:28N 36°55' E 002°33'5513.9
2015-Apr-28 18:31N 36°47' E 001°25'1414.2
2015-Apr-28 17:33N 36°45' E 001°08'1414.3
2015-Apr-28 16:33N 36°43' E 000°50'1414.0
2015-Apr-28 15:33N 36°41' E 000°33'1413.9
2015-Apr-28 14:33N 36°39' E 000°16'4313.8
2015-Apr-28 11:26N 36°33' W 000°37'9713.6
2015-Apr-28 04:18N 36°19' W 002°37'1212.8
2015-Apr-28 03:24N 36°17' W 002°51'11312.8
2015-Apr-27 18:33N 36°04' W 005°10'6 5.9
2015-Apr-27 17:34N 36°01' W 005°16'  

Dump ship's entire track history